Time;durP1;ratioP1;P1;durP2;ratioP2;P2;SDS_P1;SDS_P2;PMS_P1;PMS_P2;Temp;Humidity;BMP_temperature;BMP_pressure;BME280_temperature;BME280_humidity;BME280_pressure;Samples;Min_cycle;Max_cycle;Signal;HPM_P1;HPM_P2
2023/07/10 00:01:15;;;;;;;11.23;5.93;;;20.50;98.80;;;;;;5090061;28;20032;-75
2023/07/10 00:03:41;;;;;;;15.98;6.15;;;20.40;99.20;;;;;;5088483;28;20044;-77
2023/07/10 00:06:12;;;;;;;17.65;7.18;;;20.20;99.90;;;;;;5089344;28;20534;-76
2023/07/10 00:08:38;;;;;;;12.32;6.05;;;20.30;99.90;;;;;;5076576;28;20055;-75
2023/07/10 00:11:09;;;;;;;11.70;6.13;;;20.40;99.90;;;;;;5107414;28;20665;-76
2023/07/10 00:13:35;;;;;;;9.90;6.00;;;20.50;99.90;;;;;;5109025;28;20115;-76
2023/07/10 00:16:00;;;;;;;11.57;6.10;;;20.50;99.90;;;;;;5108008;28;20126;-76
2023/07/10 00:18:26;;;;;;;13.93;6.20;;;20.60;99.90;;;;;;5108702;28;20042;-76
2023/07/10 00:20:52;;;;;;;13.60;6.25;;;20.50;99.90;;;;;;5107153;28;20028;-75
2023/07/10 00:23:17;;;;;;;13.25;6.78;;;20.50;99.90;;;;;;5108218;28;20089;-76
2023/07/10 00:25:44;;;;;;;11.90;6.03;;;20.40;99.90;;;;;;5108998;28;20081;-78
2023/07/10 00:28:20;;;;;;;12.23;6.55;;;20.30;99.90;;;;;;5107272;28;20133;-76
2023/07/10 00:30:48;;;;;;;12.30;6.43;;;20.30;99.90;;;;;;5107872;28;20067;-72
2023/07/10 00:33:16;;;;;;;12.30;6.72;;;20.30;99.90;;;;;;5081435;28;20077;-76
2023/07/10 00:35:42;;;;;;;13.77;6.55;;;20.30;99.90;;;;;;5090334;28;20097;-75
2023/07/10 00:38:18;;;;;;;14.27;6.97;;;20.20;99.90;;;;;;5110019;28;20094;-76
2023/07/10 00:40:46;;;;;;;12.05;6.85;;;20.20;99.90;;;;;;5098565;28;20444;-75
2023/07/10 00:43:25;;;;;;;16.00;6.53;;;20.20;99.90;;;;;;5112157;28;20039;-76
2023/07/10 00:45:51;;;;;;;12.52;6.88;;;20.10;99.90;;;;;;5111541;28;20030;-75
2023/07/10 00:48:26;;;;;;;13.60;6.40;;;20.20;99.90;;;;;;5112065;28;20051;-76
2023/07/10 00:50:51;;;;;;;12.48;6.60;;;20.10;99.90;;;;;;5111478;28;20799;-75
2023/07/10 00:53:31;;;;;;;13.05;7.38;;;20.10;99.90;;;;;;5112596;28;20043;-76
2023/07/10 00:56:00;;;;;;;15.13;6.65;;;20.00;99.90;;;;;;5111765;28;20092;-77
2023/07/10 00:58:37;;;;;;;13.00;6.80;;;20.00;99.90;;;;;;5112417;28;20661;-75
2023/07/10 01:01:15;;;;;;;13.13;6.80;;;19.90;99.90;;;;;;5107805;28;20440;-75
2023/07/10 01:03:42;;;;;;;12.85;6.72;;;19.90;99.90;;;;;;5112184;28;20643;-74
2023/07/10 01:06:20;;;;;;;15.57;6.43;;;19.80;99.90;;;;;;5111392;28;20077;-74
2023/07/10 01:08:52;;;;;;;11.77;6.50;;;19.80;99.90;;;;;;5110684;28;20024;-75
2023/07/10 01:11:19;;;;;;;12.43;6.35;;;19.80;99.90;;;;;;5110206;28;20559;-76
2023/07/10 01:13:48;;;;;;;15.82;7.57;;;19.80;99.90;;;;;;5100113;28;20055;-74
2023/07/10 01:16:14;;;;;;;18.67;7.10;;;19.90;99.90;;;;;;5098352;28;20040;-74
2023/07/10 01:18:41;;;;;;;16.15;6.78;;;19.90;99.90;;;;;;5104256;28;20028;-79
2023/07/10 01:21:26;;;;;;;12.38;7.03;;;19.90;99.90;;;;;;5098608;28;20043;-76
2023/07/10 01:23:54;;;;;;;13.25;6.70;;;19.90;99.90;;;;;;5111007;28;20040;-77
2023/07/10 01:26:19;;;;;;;12.13;6.93;;;20.00;99.90;;;;;;5111695;28;20032;-77
2023/07/10 01:28:46;;;;;;;14.57;7.38;;;20.00;99.90;;;;;;5111225;28;20034;-75
2023/07/10 01:31:17;;;;;;;12.02;6.88;;;20.00;99.90;;;;;;5111127;28;20470;-76
2023/07/10 01:33:54;;;;;;;12.48;6.50;;;19.80;99.90;;;;;;5111712;28;20107;-75
2023/07/10 01:36:23;;;;;;;15.63;6.20;;;19.80;99.90;;;;;;5111650;28;20624;-74
2023/07/10 01:39:23;;;;;;;14.38;6.43;;;19.70;99.90;;;;;;5108877;28;20088;-75
2023/07/10 01:41:49;;;;;;;17.10;6.95;;;19.70;99.90;;;;;;5091053;28;20686;-72
2023/07/10 01:44:23;;;;;;;14.25;7.50;;;19.40;99.90;;;;;;5098830;28;20110;-77
2023/07/10 01:46:49;;;;;;;17.60;7.28;;;19.30;99.90;;;;;;5110932;28;20035;-75
2023/07/10 01:49:17;;;;;;;14.18;6.63;;;19.30;99.90;;;;;;5109096;28;20380;-78
2023/07/10 01:51:44;;;;;;;17.83;6.75;;;19.20;99.90;;;;;;5092821;28;20035;-77
2023/07/10 01:54:15;;;;;;;10.82;6.30;;;19.20;99.90;;;;;;5104755;28;20678;-77
2023/07/10 01:56:41;;;;;;;13.18;6.93;;;19.10;99.90;;;;;;5106880;28;20031;-75
2023/07/10 01:59:07;;;;;;;14.23;6.32;;;19.10;99.90;;;;;;5105126;28;20027;-76
2023/07/10 02:01:33;;;;;;;12.95;5.85;;;19.00;99.90;;;;;;5108256;28;20079;-77
2023/07/10 02:03:59;;;;;;;14.73;7.03;;;19.00;99.90;;;;;;5108480;28;20035;-77
2023/07/10 02:06:25;;;;;;;13.70;6.55;;;19.00;99.90;;;;;;5103536;28;20513;-76
2023/07/10 02:08:51;;;;;;;16.17;7.30;;;19.00;99.90;;;;;;5109686;27;20050;-76
2023/07/10 02:11:16;;;;;;;13.77;6.78;;;18.90;99.90;;;;;;5110597;27;20028;-76
2023/07/10 02:13:42;;;;;;;15.05;6.97;;;18.90;99.90;;;;;;5110668;28;20480;-76
2023/07/10 02:16:10;;;;;;;14.95;6.97;;;18.90;99.90;;;;;;5109975;28;20035;-76
2023/07/10 02:18:35;;;;;;;18.17;7.38;;;18.80;99.90;;;;;;5108307;28;20077;-76
2023/07/10 02:21:01;;;;;;;16.00;6.88;;;18.70;99.90;;;;;;5092760;28;20066;-73
2023/07/10 02:23:27;;;;;;;14.52;6.63;;;18.70;99.90;;;;;;5106070;28;20051;-76
2023/07/10 02:25:53;;;;;;;18.63;7.40;;;18.70;99.90;;;;;;5108015;28;20038;-73
2023/07/10 02:28:19;;;;;;;13.75;6.45;;;18.70;99.90;;;;;;5089743;28;20028;-77
2023/07/10 02:30:44;;;;;;;12.40;6.55;;;18.80;99.90;;;;;;5094567;28;20028;-78
2023/07/10 02:33:10;;;;;;;13.32;6.60;;;18.90;99.90;;;;;;5098256;28;20063;-77
2023/07/10 02:35:36;;;;;;;16.45;6.55;;;19.00;99.90;;;;;;5097509;28;20040;-76
2023/07/10 02:38:02;;;;;;;13.40;7.22;;;19.20;99.90;;;;;;5104488;28;20027;-77
2023/07/10 02:40:27;;;;;;;12.38;6.35;;;19.30;99.90;;;;;;5107707;28;20070;-74
2023/07/10 02:42:53;;;;;;;12.57;7.28;;;19.40;99.90;;;;;;5096248;28;20073;-73
2023/07/10 02:45:19;;;;;;;13.43;6.82;;;19.50;99.90;;;;;;5098284;28;20399;-78
2023/07/10 02:47:45;;;;;;;11.48;6.85;;;19.60;99.90;;;;;;5109516;28;20138;-78
2023/07/10 02:50:11;;;;;;;12.00;6.68;;;19.60;99.90;;;;;;5106044;28;20040;-78
2023/07/10 02:52:37;;;;;;;11.90;6.53;;;19.50;99.90;;;;;;5109364;28;20046;-78
2023/07/10 02:55:03;;;;;;;12.32;6.80;;;19.40;99.90;;;;;;5109113;28;20027;-79
2023/07/10 02:57:28;;;;;;;12.23;6.78;;;19.40;99.90;;;;;;5108662;28;20036;-77
2023/07/10 02:59:56;;;;;;;12.75;6.82;;;19.50;99.90;;;;;;5107205;28;20071;-74
2023/07/10 03:02:22;;;;;;;18.42;6.75;;;19.60;99.90;;;;;;5094358;28;20119;-78
2023/07/10 03:04:47;;;;;;;16.52;7.22;;;19.70;99.90;;;;;;5089233;28;20471;-79
2023/07/10 03:07:13;;;;;;;15.88;6.50;;;19.60;99.90;;;;;;5088640;28;20032;-78
2023/07/10 03:09:38;;;;;;;13.45;7.10;;;19.40;99.90;;;;;;5089522;28;20032;-77
2023/07/10 03:12:05;;;;;;;13.10;6.90;;;19.10;99.90;;;;;;5088606;28;20424;-75
2023/07/10 03:14:30;;;;;;;14.73;7.07;;;18.80;99.90;;;;;;5102627;28;20543;-73
2023/07/10 03:16:56;;;;;;;12.63;6.60;;;18.80;99.90;;;;;;5108485;28;20039;-70
2023/07/10 03:19:21;;;;;;;23.88;8.68;;;18.80;99.90;;;;;;5108164;28;20041;-73
2023/07/10 03:21:47;;;;;;;18.30;7.15;;;18.80;99.90;;;;;;5109589;28;20517;-73
2023/07/10 03:24:13;;;;;;;17.45;7.47;;;18.80;99.90;;;;;;5107964;28;20460;-72
2023/07/10 03:26:38;;;;;;;14.20;6.60;;;18.80;99.90;;;;;;5099728;28;20031;-74
2023/07/10 03:29:11;;;;;;;16.92;7.22;;;18.80;99.90;;;;;;5109457;28;20024;-72
2023/07/10 03:31:37;;;;;;;26.92;8.32;;;18.60;99.90;;;;;;5108022;28;20039;-73
2023/07/10 03:34:04;;;;;;;18.48;7.70;;;18.60;99.90;;;;;;5098967;28;20035;-72
2023/07/10 03:36:30;;;;;;;16.10;7.22;;;18.60;99.90;;;;;;5105005;27;20032;-73
2023/07/10 03:38:56;;;;;;;12.15;7.10;;;18.70;99.90;;;;;;5107298;28;20114;-71
2023/07/10 03:41:21;;;;;;;15.40;7.60;;;18.80;99.90;;;;;;5107685;28;20503;-71
2023/07/10 03:43:48;;;;;;;12.15;7.22;;;18.80;99.90;;;;;;5103654;28;20043;-72
2023/07/10 03:46:15;;;;;;;14.10;6.93;;;18.90;99.90;;;;;;5105215;27;20039;-73
2023/07/10 03:48:41;;;;;;;15.63;7.72;;;19.00;99.90;;;;;;5068058;28;20167;-73
2023/07/10 03:51:07;;;;;;;11.75;7.13;;;18.90;99.90;;;;;;5066055;28;20131;-72
2023/07/10 03:53:33;;;;;;;15.57;7.07;;;18.90;99.90;;;;;;5068273;28;20033;-73
2023/07/10 03:55:59;;;;;;;15.05;6.75;;;18.90;99.90;;;;;;5058561;28;20039;-71
2023/07/10 03:58:28;;;;;;;12.40;6.32;;;19.30;99.90;;;;;;5050692;28;20438;-72
2023/07/10 04:00:55;;;;;;;15.45;7.20;;;20.10;99.90;;;;;;5068922;28;20028;-77
2023/07/10 04:03:23;;;;;;;13.73;7.30;;;20.70;99.90;;;;;;5062858;28;20077;-68
2023/07/10 04:05:52;;;;;;;12.73;6.82;;;20.90;99.90;;;;;;5066312;28;20450;-71
2023/07/10 04:08:21;;;;;;;12.05;6.80;;;20.60;99.90;;;;;;5067719;28;20017;-72
2023/07/10 04:10:52;;;;;;;13.85;6.70;;;20.00;99.90;;;;;;5065144;28;20074;-71
2023/07/10 04:13:18;;;;;;;13.98;6.60;;;20.20;99.90;;;;;;5071525;28;20657;-74
2023/07/10 04:16:06;;;;;;;12.45;6.97;;;20.60;99.90;;;;;;5072589;28;20091;-74
2023/07/10 04:18:37;;;;;;;13.80;6.90;;;21.00;99.90;;;;;;5086843;28;20047;-71
2023/07/10 04:21:06;;;;;;;18.88;7.38;;;21.30;99.90;;;;;;5078832;28;20035;-73
2023/07/10 04:23:31;;;;;;;15.18;6.50;;;21.40;99.90;;;;;;5072261;28;20051;-71
2023/07/10 04:25:58;;;;;;;15.02;7.07;;;21.40;99.90;;;;;;5071573;28;20028;-70
2023/07/10 04:28:24;;;;;;;12.48;7.45;;;21.50;99.90;;;;;;5071324;28;20032;-75
2023/07/10 04:30:51;;;;;;;21.05;7.68;;;21.60;99.90;;;;;;5072724;28;20032;-79
2023/07/10 04:33:18;;;;;;;14.70;7.60;;;21.60;99.90;;;;;;5070122;28;20040;-73
2023/07/10 04:35:50;;;;;;;21.20;7.32;;;21.60;99.90;;;;;;5070714;28;20032;-73
2023/07/10 04:38:16;;;;;;;14.73;7.32;;;21.70;99.90;;;;;;5071180;28;20094;-74
2023/07/10 04:40:54;;;;;;;15.43;6.93;;;21.70;99.90;;;;;;5071375;28;20214;-73
2023/07/10 04:43:20;;;;;;;18.08;7.55;;;21.70;99.90;;;;;;5072041;28;20040;-75
2023/07/10 04:45:46;;;;;;;12.27;6.72;;;21.70;99.90;;;;;;5079134;28;20488;-76
2023/07/10 04:48:11;;;;;;;14.07;6.85;;;21.70;99.90;;;;;;5099331;27;20104;-74
2023/07/10 04:50:37;;;;;;;18.27;7.30;;;21.80;99.90;;;;;;5111408;28;20139;-74
2023/07/10 04:53:02;;;;;;;13.85;7.40;;;21.80;99.90;;;;;;5110376;28;20081;-72
2023/07/10 04:55:28;;;;;;;13.65;7.20;;;21.80;99.90;;;;;;5109200;28;20464;-72
2023/07/10 04:57:54;;;;;;;12.15;6.85;;;21.90;99.90;;;;;;5111551;28;20066;-72
2023/07/10 05:00:19;;;;;;;12.18;7.05;;;21.90;99.90;;;;;;5121104;27;20544;-72
2023/07/10 05:02:46;;;;;;;16.70;7.43;;;21.90;99.90;;;;;;5112546;28;20030;-73
2023/07/10 05:05:12;;;;;;;16.52;7.45;;;21.80;99.90;;;;;;5111468;28;20027;-72
2023/07/10 05:07:37;;;;;;;16.27;7.75;;;21.70;99.90;;;;;;5112063;28;20060;-75
2023/07/10 05:10:04;;;;;;;15.30;7.70;;;21.70;99.90;;;;;;5109821;28;20023;-72
2023/07/10 05:12:29;;;;;;;15.48;7.65;;;21.70;99.90;;;;;;5109953;28;20035;-78
2023/07/10 05:14:55;;;;;;;18.30;7.80;;;21.70;99.90;;;;;;5125230;27;20047;-72
2023/07/10 05:17:21;;;;;;;15.65;7.75;;;21.70;99.90;;;;;;5113111;27;20032;-77
2023/07/10 05:19:46;;;;;;;15.88;8.27;;;21.70;99.90;;;;;;5110240;28;20039;-73
2023/07/10 05:22:12;;;;;;;18.60;7.45;;;21.70;99.90;;;;;;5105810;27;20486;-72
2023/07/10 05:24:38;;;;;;;17.88;7.60;;;21.80;99.90;;;;;;5122370;27;20031;-74
2023/07/10 05:27:04;;;;;;;20.55;8.07;;;21.80;99.90;;;;;;5111407;28;20031;-73
2023/07/10 05:29:29;;;;;;;13.05;7.53;;;21.70;99.90;;;;;;5111874;28;20028;-80
2023/07/10 05:31:56;;;;;;;20.77;8.02;;;21.60;99.90;;;;;;5110164;28;20158;-79
2023/07/10 05:34:23;;;;;;;11.95;7.47;;;21.60;99.90;;;;;;5109904;28;20050;-78
2023/07/10 05:36:49;;;;;;;18.50;8.23;;;21.60;99.90;;;;;;5111482;28;20048;-78
2023/07/10 05:39:15;;;;;;;17.73;8.70;;;21.60;99.90;;;;;;5113711;27;20023;-71
2023/07/10 05:41:41;;;;;;;17.83;7.82;;;21.70;99.90;;;;;;5132078;27;20027;-75
2023/07/10 05:44:06;;;;;;;13.93;7.72;;;21.80;99.90;;;;;;5105020;27;20100;-69
2023/07/10 05:46:32;;;;;;;16.92;8.00;;;21.90;99.90;;;;;;5110521;28;20035;-77
2023/07/10 05:48:58;;;;;;;14.48;8.18;;;21.90;99.90;;;;;;5110104;27;20042;-74
2023/07/10 05:51:24;;;;;;;14.07;7.28;;;22.00;99.90;;;;;;5116266;27;20075;-71
2023/07/10 05:53:50;;;;;;;17.83;7.88;;;22.10;99.90;;;;;;5111256;28;20041;-73
2023/07/10 05:56:15;;;;;;;18.33;8.27;;;22.20;99.90;;;;;;5110226;28;20486;-76
2023/07/10 05:58:41;;;;;;;17.42;8.07;;;22.30;99.90;;;;;;5111222;28;20039;-74
2023/07/10 06:01:09;;;;;;;18.92;8.18;;;22.40;99.90;;;;;;5109337;28;20035;-67
2023/07/10 06:03:35;;;;;;;18.10;7.72;;;22.60;99.90;;;;;;5109176;27;20027;-72
2023/07/10 06:06:05;;;;;;;16.23;7.82;;;22.80;99.90;;;;;;5116111;27;20036;-76
2023/07/10 06:08:32;;;;;;;11.15;7.80;;;23.00;99.90;;;;;;5109569;28;20114;-73
2023/07/10 06:10:58;;;;;;;20.85;8.25;;;23.20;99.90;;;;;;5109300;28;20035;-74
2023/07/10 06:13:25;;;;;;;20.33;7.88;;;23.30;99.90;;;;;;5110203;28;20295;-77
2023/07/10 06:15:53;;;;;;;18.25;7.88;;;23.50;99.90;;;;;;5109269;28;20023;-79
2023/07/10 06:18:19;;;;;;;16.95;8.32;;;23.60;99.90;;;;;;5110258;27;20035;-75
2023/07/10 06:20:52;;;;;;;14.65;7.90;;;23.50;99.90;;;;;;5113208;27;20039;-73
2023/07/10 06:23:17;;;;;;;16.65;8.50;;;23.60;99.90;;;;;;5091411;28;20027;-72
2023/07/10 06:25:44;;;;;;;14.23;8.90;;;23.60;99.90;;;;;;5110179;28;20024;-76
2023/07/10 06:28:10;;;;;;;13.57;8.05;;;23.80;99.90;;;;;;5094417;28;20428;-72
2023/07/10 06:30:41;;;;;;;20.23;8.48;;;24.00;99.90;;;;;;5122158;27;20031;-77
2023/07/10 06:33:06;;;;;;;18.05;8.68;;;24.10;99.90;;;;;;5113414;27;20062;-73
2023/07/10 06:35:32;;;;;;;19.25;8.73;;;24.20;99.90;;;;;;5108887;28;20540;-71
2023/07/10 06:37:58;;;;;;;19.33;8.38;;;24.30;99.90;;;;;;5107466;27;20460;-74
2023/07/10 06:40:23;;;;;;;15.68;8.77;;;24.40;99.90;;;;;;5126549;27;20449;-74
2023/07/10 06:42:49;;;;;;;14.95;8.80;;;24.40;99.90;;;;;;5131077;27;20066;-71
2023/07/10 06:45:15;;;;;;;22.65;9.07;;;24.50;99.90;;;;;;5129938;27;20483;-76
2023/07/10 06:47:43;;;;;;;18.50;9.00;;;24.50;99.90;;;;;;5120216;27;20552;-74
2023/07/10 06:50:11;;;;;;;20.63;9.05;;;24.60;99.90;;;;;;5122468;27;20582;-70
2023/07/10 06:52:42;;;;;;;17.38;8.35;;;24.80;99.90;;;;;;5130604;27;20539;-76
2023/07/10 06:55:10;;;;;;;16.23;8.77;;;25.00;99.90;;;;;;5122704;27;20451;-71
2023/07/10 06:57:36;;;;;;;27.25;9.23;;;25.10;99.90;;;;;;5118912;27;20031;-78
2023/07/10 07:00:03;;;;;;;14.38;9.07;;;25.20;99.90;;;;;;5109115;28;20459;-74
2023/07/10 07:02:28;;;;;;;15.38;8.95;;;25.30;99.90;;;;;;5105576;28;20604;-73
2023/07/10 07:04:54;;;;;;;17.05;8.88;;;25.50;99.90;;;;;;5107897;28;20089;-75
2023/07/10 07:07:19;;;;;;;15.45;8.95;;;25.90;99.90;;;;;;5108892;28;20032;-74
2023/07/10 07:09:45;;;;;;;14.55;8.73;;;26.00;99.90;;;;;;5084828;28;20780;-74
2023/07/10 07:12:11;;;;;;;18.15;8.65;;;26.10;99.90;;;;;;5107883;27;20038;-70
2023/07/10 07:14:36;;;;;;;18.13;9.13;;;25.90;99.90;;;;;;5113843;27;20039;-73
2023/07/10 07:17:04;;;;;;;17.10;8.20;;;25.80;99.90;;;;;;5106598;28;20039;-72
2023/07/10 07:19:29;;;;;;;15.98;8.40;;;25.80;99.90;;;;;;5107220;28;20667;-73
2023/07/10 07:21:55;;;;;;;18.30;8.15;;;26.00;99.90;;;;;;5090116;28;20067;-73
2023/07/10 07:24:21;;;;;;;15.27;8.02;;;26.10;99.90;;;;;;5108489;28;20035;-75
2023/07/10 07:26:46;;;;;;;18.92;9.18;;;26.20;99.90;;;;;;5106904;27;20031;-72
2023/07/10 07:29:12;;;;;;;19.08;9.00;;;26.30;99.90;;;;;;5115959;27;20027;-71
2023/07/10 07:31:39;;;;;;;16.17;8.52;;;26.30;99.90;;;;;;5108900;27;20028;-75
2023/07/10 07:34:05;;;;;;;24.17;9.43;;;26.40;99.90;;;;;;5089996;28;20119;-73
2023/07/10 07:36:34;;;;;;;13.43;8.48;;;26.40;99.90;;;;;;5107480;28;20020;-73
2023/07/10 07:39:03;;;;;;;16.48;8.98;;;26.40;99.90;;;;;;5114710;27;20027;-75
2023/07/10 07:41:31;;;;;;;17.40;8.77;;;26.30;99.90;;;;;;5129137;27;20038;-77
2023/07/10 07:43:58;;;;;;;13.35;8.75;;;26.50;99.90;;;;;;5129700;27;20042;-73
2023/07/10 07:46:24;;;;;;;13.70;8.27;;;26.60;99.90;;;;;;5109227;27;20032;-70
2023/07/10 07:48:49;;;;;;;15.57;8.95;;;26.80;99.90;;;;;;5106223;28;20074;-76
2023/07/10 07:51:15;;;;;;;15.30;8.55;;;26.80;99.50;;;;;;5107193;28;20524;-76
2023/07/10 07:53:41;;;;;;;16.67;8.50;;;26.70;99.90;;;;;;5088712;28;20467;-75
2023/07/10 07:56:07;;;;;;;16.23;8.95;;;26.80;99.90;;;;;;5089122;28;20036;-78
2023/07/10 07:58:33;;;;;;;17.67;9.48;;;26.80;99.60;;;;;;5108370;28;20103;-77
2023/07/10 08:01:02;;;;;;;14.25;8.63;;;26.80;99.90;;;;;;5109147;28;20104;-75
2023/07/10 08:03:32;;;;;;;14.82;8.25;;;27.00;98.60;;;;;;5087561;28;20398;-77
2023/07/10 08:05:58;;;;;;;21.33;9.00;;;27.20;99.10;;;;;;5108248;28;20058;-74
2023/07/10 08:08:24;;;;;;;12.93;8.15;;;27.00;98.90;;;;;;5105245;28;20067;-78
2023/07/10 08:10:50;;;;;;;21.13;8.30;;;27.00;99.50;;;;;;5107797;28;20023;-77
2023/07/10 08:13:19;;;;;;;14.73;8.85;;;26.90;99.00;;;;;;5107916;28;20540;-79
2023/07/10 08:15:48;;;;;;;15.35;8.38;;;27.00;99.30;;;;;;5108331;28;20118;-78
2023/07/10 08:18:14;;;;;;;16.58;8.52;;;27.20;98.60;;;;;;5107942;28;20038;-73
2023/07/10 08:20:40;;;;;;;14.40;8.40;;;27.20;99.10;;;;;;5107954;28;20035;-73
2023/07/10 08:23:06;;;;;;;13.15;7.95;;;27.40;97.90;;;;;;5107901;28;20032;-74
2023/07/10 08:25:34;;;;;;;14.63;8.55;;;27.60;98.70;;;;;;5106832;28;20563;-73
2023/07/10 08:28:03;;;;;;;18.02;8.20;;;27.60;98.00;;;;;;5107091;28;20168;-71
2023/07/10 08:30:30;;;;;;;14.40;8.45;;;27.70;97.80;;;;;;5106083;28;20483;-71
2023/07/10 08:32:59;;;;;;;21.95;8.32;;;27.50;97.20;;;;;;5102935;28;20035;-74
2023/07/10 08:35:24;;;;;;;18.67;7.85;;;27.60;98.60;;;;;;5105029;28;20035;-76
2023/07/10 08:37:50;;;;;;;13.13;8.40;;;27.80;97.80;;;;;;5108490;28;20072;-73
2023/07/10 08:40:30;;;;;;;14.43;8.52;;;27.80;96.90;;;;;;5107990;28;20034;-74
2023/07/10 08:43:00;;;;;;;14.50;8.07;;;27.90;97.60;;;;;;5107246;28;20058;-77
2023/07/10 08:45:37;;;;;;;13.35;7.40;;;28.10;97.60;;;;;;5115857;28;20043;-75
2023/07/10 08:48:34;;;;;;;17.23;7.30;;;28.60;96.40;;;;;;5100428;28;20059;-72
2023/07/10 08:51:20;;;;;;;19.55;7.60;;;28.90;96.00;;;;;;5108507;28;20027;-74
2023/07/10 08:54:02;;;;;;;11.93;7.10;;;28.90;95.90;;;;;;5049072;28;20418;-71
2023/07/10 08:56:49;;;;;;;10.85;7.35;;;28.90;95.00;;;;;;5092039;28;20431;-74
2023/07/10 08:59:38;;;;;;;12.05;8.18;;;28.80;94.90;;;;;;5092004;28;20115;-74
2023/07/10 09:02:28;;;;;;;11.93;7.43;;;28.70;95.40;;;;;;5093449;28;20020;-78
2023/07/10 09:04:55;;;;;;;18.02;7.68;;;28.70;96.50;;;;;;5111604;28;20024;-72
2023/07/10 09:07:22;;;;;;;13.23;8.20;;;28.80;95.70;;;;;;5111224;28;20077;-74
2023/07/10 09:09:53;;;;;;;18.20;8.80;;;28.80;94.70;;;;;;5092251;28;20433;-71
2023/07/10 09:12:21;;;;;;;15.35;8.57;;;28.80;94.60;;;;;;5109483;28;20081;-77
2023/07/10 09:14:56;;;;;;;12.80;7.85;;;28.80;94.60;;;;;;5111766;28;20066;-74
2023/07/10 09:17:31;;;;;;;12.30;8.35;;;29.00;93.60;;;;;;5110167;28;20063;-77
2023/07/10 09:20:06;;;;;;;13.05;8.05;;;28.90;93.80;;;;;;5126349;27;20040;-73
2023/07/10 09:22:34;;;;;;;13.73;8.10;;;28.90;95.00;;;;;;5110150;28;20106;-77
2023/07/10 09:25:00;;;;;;;12.32;7.82;;;28.80;94.80;;;;;;5111199;28;20040;-86
2023/07/10 09:27:26;;;;;;;12.57;7.95;;;28.60;95.00;;;;;;5091503;28;20034;-78
2023/07/10 09:29:54;;;;;;;19.40;8.40;;;28.60;95.20;;;;;;5111524;28;20031;-74
2023/07/10 09:32:20;;;;;;;16.23;8.43;;;28.60;95.40;;;;;;5111052;28;20044;-73
2023/07/10 09:34:49;;;;;;;24.70;8.63;;;28.70;95.30;;;;;;5109176;28;20115;-76
2023/07/10 09:37:19;;;;;;;11.07;7.63;;;28.70;95.20;;;;;;5111452;28;20032;-75
2023/07/10 09:39:48;;;;;;;13.15;7.57;;;28.90;95.50;;;;;;5109546;28;20077;-73
2023/07/10 09:42:20;;;;;;;16.10;8.07;;;29.50;95.10;;;;;;5095851;28;20031;-76
2023/07/10 09:44:55;;;;;;;17.27;7.75;;;29.90;94.80;;;;;;5090785;28;20663;-72
2023/07/10 09:47:22;;;;;;;11.13;7.20;;;30.00;94.50;;;;;;5082634;28;20049;-70
2023/07/10 09:49:51;;;;;;;11.85;7.22;;;30.30;93.10;;;;;;5069097;28;20047;-74
2023/07/10 09:52:29;;;;;;;20.83;6.93;;;29.70;93.10;;;;;;5068480;28;20562;-72
2023/07/10 09:55:17;;;;;;;14.63;7.20;;;29.40;94.30;;;;;;5069451;28;20047;-74
2023/07/10 09:58:00;;;;;;;13.30;6.45;;;29.50;93.00;;;;;;5060903;28;20041;-76
2023/07/10 10:00:27;;;;;;;17.42;6.80;;;29.00;93.70;;;;;;5067887;28;20052;-74
2023/07/10 10:03:01;;;;;;;10.70;6.78;;;28.60;94.00;;;;;;5067106;28;20035;-76
2023/07/10 10:05:28;;;;;;;17.42;6.68;;;28.50;94.50;;;;;;5065932;28;20040;-76
2023/07/10 10:08:01;;;;;;;10.23;7.07;;;28.80;94.10;;;;;;5062687;28;20035;-76
2023/07/10 10:10:33;;;;;;;11.32;7.00;;;29.00;93.50;;;;;;5058125;28;20090;-75
2023/07/10 10:13:19;;;;;;;17.02;7.13;;;29.20;93.20;;;;;;5055211;28;20017;-77
2023/07/10 10:16:02;;;;;;;10.57;6.43;;;29.10;93.10;;;;;;5049673;28;20036;-75
2023/07/10 10:19:16;;;;;;;11.30;6.70;;;29.20;92.60;;;;;;5077409;28;20515;-75
2023/07/10 10:21:45;;;;;;;9.85;6.78;;;29.60;92.80;;;;;;5037461;28;20048;-74
2023/07/10 10:24:12;;;;;;;13.90;6.72;;;29.70;92.60;;;;;;5066351;28;20037;-76
2023/07/10 10:27:11;;;;;;;13.10;7.03;;;30.00;93.20;;;;;;5054143;28;20104;-80
2023/07/10 10:29:54;;;;;;;17.85;7.43;;;30.40;93.40;;;;;;5064255;28;20036;-77
2023/07/10 10:32:30;;;;;;;10.25;6.85;;;30.50;91.80;;;;;;5089865;28;20028;-74
2023/07/10 10:35:38;;;;;;;13.18;6.75;;;30.50;92.00;;;;;;5090270;28;20028;-77
2023/07/10 10:38:22;;;;;;;10.15;6.70;;;30.80;91.90;;;;;;5044172;28;20040;-76
2023/07/10 10:41:29;;;;;;;12.60;6.90;;;30.80;91.10;;;;;;5068677;28;20036;-78
2023/07/10 10:44:08;;;;;;;8.68;6.35;;;30.30;91.80;;;;;;5070849;28;20124;-77
2023/07/10 10:46:49;;;;;;;12.07;6.93;;;30.30;91.40;;;;;;5064435;28;20119;-79
2023/07/10 10:49:24;;;;;;;17.90;6.80;;;30.20;91.50;;;;;;5128104;27;20655;-72
2023/07/10 10:52:09;;;;;;;15.95;6.90;;;30.20;91.70;;;;;;5130356;27;20031;-80
2023/07/10 10:54:58;;;;;;;10.27;6.05;;;30.20;91.30;;;;;;5110514;27;20034;-74
2023/07/10 10:57:49;;;;;;;8.82;6.47;;;30.60;91.30;;;;;;5077215;28;20127;-74
2023/07/10 11:00:29;;;;;;;14.75;8.10;;;30.80;91.10;;;;;;5109593;28;20034;-79
2023/07/10 11:03:22;;;;;;;13.05;7.40;;;30.20;92.50;;;;;;5111011;27;20072;-78
2023/07/10 11:05:54;;;;;;;12.02;7.18;;;30.50;91.90;;;;;;5127038;27;20035;-78
2023/07/10 11:08:30;;;;;;;11.15;7.13;;;30.40;92.00;;;;;;5105090;28;20027;-73
2023/07/10 11:10:57;;;;;;;9.57;7.20;;;30.60;90.30;;;;;;5097409;28;20035;-74
2023/07/10 11:13:37;;;;;;;21.73;7.65;;;30.20;90.80;;;;;;5108663;28;20023;-72
2023/07/10 11:16:04;;;;;;;;;;;30.00;91.50;;;;;;5100701;28;20032;-74
2023/07/10 11:18:30;;;;;;;8.77;6.72;;;30.00;91.70;;;;;;5107568;28;20283;-76
2023/07/10 11:20:57;;;;;;;13.90;7.68;;;30.50;91.60;;;;;;5107955;28;20034;-76
2023/07/10 11:23:49;;;;;;;15.45;7.50;;;31.00;90.20;;;;;;5089950;28;20441;-72
2023/07/10 11:26:23;;;;;;;10.20;7.45;;;30.60;90.30;;;;;;5108634;28;20469;-74
2023/07/10 11:28:49;;;;;;;12.35;7.25;;;30.60;92.10;;;;;;5106887;27;20387;-73
2023/07/10 11:31:17;;;;;;;11.05;7.10;;;30.90;90.50;;;;;;5109138;27;20038;-77
2023/07/10 11:33:43;;;;;;;13.15;7.03;;;31.00;89.00;;;;;;5108424;28;20031;-74
2023/07/10 11:36:16;;;;;;;11.20;7.32;;;31.00;90.20;;;;;;5114127;27;20070;-76
2023/07/10 11:38:56;;;;;;;9.93;6.93;;;31.20;88.80;;;;;;5126316;27;20043;-76
2023/07/10 11:41:29;;;;;;;14.75;7.47;;;31.20;88.40;;;;;;5107779;28;20159;-71
2023/07/10 11:44:14;;;;;;;13.27;7.63;;;31.00;89.40;;;;;;5107989;28;20032;-70
2023/07/10 11:47:10;;;;;;;11.50;7.35;;;30.50;90.10;;;;;;5107013;28;20036;-77
2023/07/10 11:49:45;;;;;;;10.70;7.70;;;31.10;89.90;;;;;;5106856;28;20036;-74
2023/07/10 11:52:14;;;;;;;13.82;7.60;;;31.10;89.30;;;;;;5091227;28;20048;-75
2023/07/10 11:54:41;;;;;;;10.52;7.00;;;30.70;89.80;;;;;;5107724;28;20042;-74
2023/07/10 11:57:06;;;;;;;16.67;8.05;;;31.00;90.60;;;;;;5107066;28;20084;-75
2023/07/10 11:59:37;;;;;;;12.35;7.53;;;30.90;90.20;;;;;;5123225;27;20035;-75
2023/07/10 12:02:21;;;;;;;16.05;8.05;;;30.70;89.00;;;;;;5129345;28;20030;-74
2023/07/10 12:04:47;;;;;;;15.65;8.23;;;30.50;87.70;;;;;;5108824;28;20031;-76
2023/07/10 12:07:16;;;;;;;13.07;7.70;;;30.30;88.20;;;;;;5108718;28;20070;-72
2023/07/10 12:09:41;;;;;;;11.60;8.35;;;30.20;90.60;;;;;;5107155;28;20028;-73
2023/07/10 12:12:13;;;;;;;14.18;7.82;;;30.60;90.00;;;;;;5105387;28;20088;-71
2023/07/10 12:14:39;;;;;;;12.05;7.70;;;31.10;90.00;;;;;;5107174;28;20049;-77
2023/07/10 12:17:13;;;;;;;14.68;8.15;;;31.40;85.40;;;;;;5108680;28;20036;-78
2023/07/10 12:19:39;;;;;;;8.85;7.13;;;30.80;86.10;;;;;;5108211;28;20530;-75
2023/07/10 12:22:24;;;;;;;15.55;7.47;;;30.50;88.20;;;;;;5107530;28;20023;-74
2023/07/10 12:24:55;;;;;;;13.20;7.30;;;30.30;90.00;;;;;;5093431;28;20143;-78
2023/07/10 12:27:22;;;;;;;12.80;8.00;;;30.40;89.70;;;;;;5103943;28;20035;-76
2023/07/10 12:29:53;;;;;;;23.58;7.70;;;30.20;89.90;;;;;;5105669;28;20027;-76
2023/07/10 12:32:19;;;;;;;14.63;7.30;;;30.40;90.40;;;;;;5106784;28;20035;-74
2023/07/10 12:34:46;;;;;;;13.18;7.85;;;30.60;89.20;;;;;;5109052;28;20809;-77
2023/07/10 12:37:15;;;;;;;17.00;8.38;;;30.90;87.20;;;;;;5109973;27;20031;-73
2023/07/10 12:39:43;;;;;;;12.43;8.00;;;31.00;86.40;;;;;;5111340;28;20035;-74
2023/07/10 12:42:26;;;;;;;13.57;8.85;;;30.30;90.60;;;;;;5111593;28;20028;-75
2023/07/10 12:44:52;;;;;;;13.93;8.40;;;29.40;92.50;;;;;;5112041;28;20096;-75
2023/07/10 12:47:17;;;;;;;16.15;8.35;;;29.50;92.70;;;;;;5076443;28;20075;-76
2023/07/10 12:49:52;;;;;;;13.80;7.95;;;29.60;92.80;;;;;;5093767;28;20032;-76
2023/07/10 12:52:26;;;;;;;18.13;8.43;;;29.90;92.80;;;;;;5112058;28;20494;-74